Time,TemperatureF,DewpointF,PressureIn,WindDirection,WindDirectionDegrees,WindSpeedMPH,WindSpeedGustMPH,Humidity,HourlyPrecipIn,Conditions,Clouds,dailyrainin,SolarRadiationWatts/m^2,SoftwareType,DateUTC
2013-08-14 10:54:00,88.9,73.8,-100.00,ESE,113,7.0,-999.0,61,-99.99,,,0.00,715.0,meteohub,2013-08-14 14:54:00,
2013-08-14 10:59:00,89.2,73.9,29.98,ESE,105,4.0,-999.0,61,-99.99,,,0.00,735.0,meteohub,2013-08-14 14:59:00,
2013-08-14 11:04:00,89.2,73.6,29.98,ESE,115,0.0,8.0,60,0.00,,,0.00,763.0,meteohub,2013-08-14 15:04:00,
2013-08-14 11:09:00,89.4,73.2,29.98,ESE,107,3.0,8.0,59,0.00,,,0.00,803.0,meteohub,2013-08-14 15:09:00,
2013-08-14 11:14:00,89.6,74.3,29.98,SE,128,2.0,8.0,61,0.00,,,0.00,835.0,meteohub,2013-08-14 15:14:00,
2013-08-14 11:19:00,89.8,74.5,29.98,ESE,108,3.0,10.0,61,0.00,,,0.00,824.0,meteohub,2013-08-14 15:19:00,
2013-08-14 11:24:00,89.2,73.9,29.98,SE,130,6.0,10.0,61,0.00,,,0.00,833.0,meteohub,2013-08-14 15:24:00,
2013-08-14 11:29:00,89.4,74.1,29.98,SSE,149,3.0,10.0,61,0.00,,,0.00,835.0,meteohub,2013-08-14 15:29:00,
2013-08-14 11:34:00,90.0,74.1,29.98,South,182,2.0,10.0,60,0.00,,,0.00,837.0,meteohub,2013-08-14 15:34:00,
2013-08-14 11:39:00,90.5,74.1,29.98,South,182,2.0,10.0,59,0.00,,,0.00,856.0,meteohub,2013-08-14 15:39:00,
2013-08-14 11:44:00,91.2,74.8,29.99,East,97,3.0,10.0,59,0.00,,,0.00,856.0,meteohub,2013-08-14 15:44:00,
2013-08-14 11:50:00,91.0,74.7,29.99,South,182,4.0,10.0,59,0.00,,,0.00,861.0,meteohub,2013-08-14 15:50:00,
2013-08-14 11:55:00,90.7,73.4,29.98,SSE,159,2.0,10.0,57,0.00,,,0.00,840.0,meteohub,2013-08-14 15:55:00,
2013-08-14 12:00:00,90.1,74.3,29.98,SSE,159,4.0,10.0,60,0.00,,,0.00,872.0,meteohub,2013-08-14 16:00:00,
2013-08-14 12:05:00,90.0,75.2,29.98,South,178,2.0,10.0,62,0.00,,,0.00,881.0,meteohub,2013-08-14 16:05:00,
2013-08-14 12:10:00,90.5,74.7,29.98,SSW,194,5.0,9.0,60,0.00,,,0.00,923.0,meteohub,2013-08-14 16:10:00,
2013-08-14 12:15:00,90.9,75.0,29.98,South,177,7.0,9.0,60,0.00,,,0.00,888.0,meteohub,2013-08-14 16:15:00,
2013-08-14 12:20:00,91.0,74.7,29.98,East,96,10.0,10.0,59,0.00,,,0.00,877.0,meteohub,2013-08-14 16:20:00,
2013-08-14 12:26:00,90.7,74.8,29.98,East,97,8.0,12.0,60,0.00,,,0.00,900.0,meteohub,2013-08-14 16:26:00,
2013-08-14 12:31:00,90.9,75.0,29.98,East,91,11.0,13.0,60,0.00,,,0.00,962.0,meteohub,2013-08-14 16:31:00,
2013-08-14 12:36:00,90.1,75.4,29.98,ESE,122,8.0,13.0,62,0.00,,,0.00,884.0,meteohub,2013-08-14 16:36:00,
2013-08-14 12:41:00,90.1,75.4,29.98,SSE,162,8.0,13.0,62,0.00,,,0.00,889.0,meteohub,2013-08-14 16:41:00,
2013-08-14 12:46:00,90.0,74.7,29.98,ESE,113,5.0,13.0,61,0.00,,,0.00,893.0,meteohub,2013-08-14 16:46:00,
2013-08-14 12:52:00,90.3,75.6,29.98,SE,134,5.0,13.0,62,0.00,,,0.00,889.0,meteohub,2013-08-14 16:52:00,
2013-08-14 12:55:00,90.9,76.1,29.98,SE,140,5.0,14.0,62,0.00,,,0.00,911.0,meteohub,2013-08-14 16:55:00,
2013-08-14 12:57:00,90.9,75.6,29.98,SE,130,7.0,14.0,61,0.00,,,0.00,907.0,meteohub,2013-08-14 16:57:00,
2013-08-14 13:07:00,90.3,75.9,29.98,East,101,8.0,14.0,63,0.00,,,0.00,902.0,meteohub,2013-08-14 17:07:00,
2013-08-14 13:12:00,90.1,74.8,29.98,ESE,107,11.0,14.0,61,0.00,,,0.00,907.0,meteohub,2013-08-14 17:12:00,
2013-08-14 13:17:00,89.8,74.5,29.97,South,190,5.0,16.0,61,0.00,,,0.00,905.0,meteohub,2013-08-14 17:17:00,
2013-08-14 13:22:00,90.0,75.2,29.97,ENE,73,8.0,16.0,62,0.00,,,0.00,916.0,meteohub,2013-08-14 17:22:00,
2013-08-14 13:27:00,90.9,75.0,29.97,ESE,123,8.0,14.0,60,0.00,,,0.00,895.0,meteohub,2013-08-14 17:27:00,
2013-08-14 13:32:00,90.3,74.5,29.97,SE,127,13.0,16.0,60,0.00,,,0.00,889.0,meteohub,2013-08-14 17:32:00,
2013-08-14 13:38:00,90.1,74.8,29.97,ESE,111,8.0,16.0,61,0.00,,,0.00,893.0,meteohub,2013-08-14 17:38:00,
2013-08-14 13:43:00,90.3,75.0,29.97,SE,126,12.0,16.0,61,0.00,,,0.00,904.0,meteohub,2013-08-14 17:43:00,
2013-08-14 13:48:00,90.1,75.9,29.97,ESE,121,12.0,15.0,63,0.00,,,0.00,893.0,meteohub,2013-08-14 17:48:00,
2013-08-14 13:54:00,90.5,76.1,29.97,East,92,10.0,15.0,63,0.00,,,0.00,896.0,meteohub,2013-08-14 17:54:00,
2013-08-14 13:59:00,90.5,76.1,29.97,ESE,110,9.0,15.0,63,0.00,,,0.00,884.0,meteohub,2013-08-14 17:59:00,
2013-08-14 14:05:00,90.3,74.5,29.97,South,169,8.0,15.0,60,0.00,,,0.00,893.0,meteohub,2013-08-14 18:05:00,
2013-08-14 14:11:00,90.1,75.4,29.97,SE,126,10.0,14.0,62,0.00,,,0.00,884.0,meteohub,2013-08-14 18:11:00,
2013-08-14 14:16:00,90.0,74.1,29.97,ESE,120,11.0,17.0,60,0.00,,,0.00,881.0,meteohub,2013-08-14 18:16:00,
2013-08-14 14:21:00,90.0,74.7,29.97,East,94,3.0,17.0,61,0.00,,,0.00,870.0,meteohub,2013-08-14 18:21:00,
2013-08-14 14:27:00,90.0,75.2,29.97,SSE,159,5.0,16.0,62,0.00,,,0.00,884.0,meteohub,2013-08-14 18:27:00,
2013-08-14 14:33:00,90.0,74.7,29.97,SE,138,13.0,14.0,61,0.00,,,0.00,863.0,meteohub,2013-08-14 18:33:00,
2013-08-14 14:38:00,90.1,75.4,29.96,SE,126,9.0,13.0,62,0.00,,,0.00,853.0,meteohub,2013-08-14 18:38:00,
2013-08-14 14:43:00,89.8,75.0,29.96,SE,144,8.0,13.0,62,0.00,,,0.00,849.0,meteohub,2013-08-14 18:43:00,
2013-08-14 14:50:00,89.2,74.5,29.96,ESE,113,12.0,14.0,62,0.00,,,0.00,840.0,meteohub,2013-08-14 18:50:00,
2013-08-14 14:51:00,89.6,75.4,29.96,ENE,65,9.0,15.0,63,0.00,,,0.00,824.0,meteohub,2013-08-14 18:51:00,
2013-08-14 14:57:00,90.1,75.4,29.95,East,94,14.0,15.0,62,0.00,,,0.00,824.0,meteohub,2013-08-14 18:57:00,
2013-08-14 15:03:00,90.0,75.7,29.95,ESE,122,8.0,15.0,63,0.00,,,0.00,810.0,meteohub,2013-08-14 19:03:00,
2013-08-14 15:08:00,90.7,75.4,29.95,East,94,11.0,15.0,61,0.00,,,0.00,810.0,meteohub,2013-08-14 19:08:00,
2013-08-14 15:13:00,90.9,76.1,29.94,ESE,108,11.0,15.0,62,0.00,,,0.00,784.0,meteohub,2013-08-14 19:13:00,
2013-08-14 15:19:00,90.7,75.9,29.94,SE,124,12.0,16.0,62,0.00,,,0.00,784.0,meteohub,2013-08-14 19:19:00,
2013-08-14 15:24:00,90.0,75.7,29.95,ESE,115,8.0,16.0,63,0.00,,,0.00,770.0,meteohub,2013-08-14 19:24:00,
2013-08-14 15:31:00,89.8,75.6,29.94,ESE,115,9.0,16.0,63,0.00,,,0.00,765.0,meteohub,2013-08-14 19:31:00,
2013-08-14 15:37:00,90.3,75.0,29.94,ESE,109,10.0,15.0,61,0.00,,,0.00,738.0,meteohub,2013-08-14 19:37:00,
2013-08-14 15:42:00,90.3,75.0,29.94,East,96,11.0,15.0,61,0.00,,,0.00,729.0,meteohub,2013-08-14 19:42:00,
2013-08-14 15:47:00,90.3,75.0,29.94,East,98,6.0,15.0,61,0.00,,,0.00,715.0,meteohub,2013-08-14 19:47:00,
2013-08-14 15:52:00,90.3,74.1,29.94,SSE,154,9.0,16.0,59,0.00,,,0.00,707.0,meteohub,2013-08-14 19:52:00,
2013-08-14 15:57:00,89.6,74.3,29.94,SSE,167,6.0,16.0,61,0.00,,,0.00,696.0,meteohub,2013-08-14 19:57:00,
2013-08-14 16:02:00,89.4,74.1,29.94,SE,125,9.0,15.0,61,0.00,,,0.00,675.0,meteohub,2013-08-14 20:02:00,
2013-08-14 16:07:00,90.0,75.2,29.94,East,96,9.0,15.0,62,0.00,,,0.00,670.0,meteohub,2013-08-14 20:07:00,
2013-08-14 16:12:00,89.8,75.6,29.94,ESE,105,14.0,15.0,63,0.00,,,0.00,663.0,meteohub,2013-08-14 20:12:00,
2013-08-14 16:17:00,89.8,75.9,29.94,South,178,8.0,18.0,64,0.00,,,0.00,642.0,meteohub,2013-08-14 20:17:00,
2013-08-14 16:22:00,89.4,74.7,29.94,SSE,149,7.0,18.0,62,0.00,,,0.00,638.0,meteohub,2013-08-14 20:22:00,
2013-08-14 16:29:00,89.6,76.3,29.94,SE,142,10.0,18.0,65,0.00,,,0.00,629.0,meteohub,2013-08-14 20:29:00,
2013-08-14 16:35:00,89.4,75.2,29.93,ESE,110,8.0,16.0,63,0.00,,,0.00,610.0,meteohub,2013-08-14 20:35:00,
2013-08-14 16:40:00,89.4,76.1,29.93,SE,129,4.0,15.0,65,0.00,,,0.00,578.0,meteohub,2013-08-14 20:40:00,
2013-08-14 16:41:00,90.0,76.1,29.93,SSE,153,11.0,15.0,64,0.00,,,0.00,573.0,meteohub,2013-08-14 20:41:00,
2013-08-14 16:47:00,89.4,75.2,29.93,SE,130,11.0,15.0,63,0.00,,,0.00,559.0,meteohub,2013-08-14 20:47:00,
2013-08-14 16:57:00,89.1,74.8,29.93,ESE,113,10.0,15.0,63,0.00,,,0.00,527.0,meteohub,2013-08-14 20:57:00,
2013-08-14 17:02:00,89.1,74.8,29.93,SE,131,12.0,16.0,63,0.00,,,0.00,515.0,meteohub,2013-08-14 21:02:00,
2013-08-14 17:07:00,89.2,73.9,29.93,ESE,111,10.0,17.0,61,0.00,,,0.00,496.0,meteohub,2013-08-14 21:07:00,
2013-08-14 17:12:00,89.1,74.8,29.93,SSE,149,14.0,17.0,63,0.00,,,0.00,480.0,meteohub,2013-08-14 21:12:00,
2013-08-14 17:17:00,88.5,73.8,29.93,ESE,107,9.0,17.0,62,0.00,,,0.00,466.0,meteohub,2013-08-14 21:17:00,
2013-08-14 17:21:00,88.5,74.3,29.92,SE,130,13.0,17.0,63,0.00,,,0.00,422.0,meteohub,2013-08-14 21:21:00,
2013-08-14 17:27:00,88.2,73.9,29.93,SSE,165,11.0,17.0,63,0.00,,,0.00,65.0,meteohub,2013-08-14 21:27:00,
2013-08-14 17:32:00,87.4,74.3,29.93,SE,126,3.0,16.0,65,0.00,,,0.00,211.0,meteohub,2013-08-14 21:32:00,
2013-08-14 17:37:00,87.8,74.5,29.92,SSE,148,10.0,15.0,65,0.00,,,0.00,306.0,meteohub,2013-08-14 21:37:00,
2013-08-14 17:42:00,88.0,74.3,29.92,SSE,163,6.0,15.0,64,0.00,,,0.00,151.0,meteohub,2013-08-14 21:42:00,
2013-08-14 17:47:00,87.1,74.3,29.92,SE,141,7.0,15.0,66,0.00,,,0.00,74.0,meteohub,2013-08-14 21:47:00,
2013-08-14 17:52:00,86.4,74.5,29.92,ESE,119,11.0,15.0,68,0.00,,,0.00,79.0,meteohub,2013-08-14 21:52:00,
2013-08-14 17:57:00,86.5,74.7,29.92,SE,128,6.0,15.0,68,0.00,,,0.00,116.0,meteohub,2013-08-14 21:57:00,
2013-08-14 18:02:00,86.5,73.8,29.92,ESE,117,8.0,15.0,66,0.00,,,0.00,120.0,meteohub,2013-08-14 22:02:00,
2013-08-14 18:07:00,86.5,73.8,29.92,ESE,102,10.0,14.0,66,0.00,,,0.00,165.0,meteohub,2013-08-14 22:07:00,
2013-08-14 18:12:00,86.5,73.8,29.92,SE,145,10.0,13.0,66,0.00,,,0.00,128.0,meteohub,2013-08-14 22:12:00,
2013-08-14 18:17:00,86.4,74.5,29.93,ESE,102,7.0,13.0,68,0.00,,,0.00,132.0,meteohub,2013-08-14 22:17:00,
2013-08-14 18:22:00,86.2,74.3,29.93,SSE,159,10.0,14.0,68,0.00,,,0.00,132.0,meteohub,2013-08-14 22:22:00,
2013-08-14 18:27:00,86.0,75.6,29.93,SSE,149,2.0,14.0,71,0.00,,,0.00,113.0,meteohub,2013-08-14 22:27:00,
2013-08-14 18:32:00,85.8,75.4,29.93,SE,136,9.0,12.0,71,0.00,,,0.00,88.0,meteohub,2013-08-14 22:32:00,
2013-08-14 18:37:00,85.6,75.2,29.93,ESE,111,8.0,13.0,71,0.00,,,0.00,72.0,meteohub,2013-08-14 22:37:00,
2013-08-14 18:42:00,85.5,75.4,29.94,SE,132,7.0,13.0,72,0.00,,,0.00,67.0,meteohub,2013-08-14 22:42:00,
2013-08-14 18:47:00,85.5,75.4,29.94,SE,142,4.0,13.0,72,0.00,,,0.00,67.0,meteohub,2013-08-14 22:47:00,
2013-08-14 18:52:00,85.5,74.1,29.94,ESE,117,7.0,12.0,69,0.00,,,0.00,69.0,meteohub,2013-08-14 22:52:00,
2013-08-14 18:57:00,85.5,73.8,29.94,SE,132,10.0,17.0,68,0.00,,,0.00,65.0,meteohub,2013-08-14 22:57:00,
2013-08-14 19:02:00,85.5,74.1,29.94,SE,142,9.0,17.0,69,0.00,,,0.00,67.0,meteohub,2013-08-14 23:02:00,
2013-08-14 19:07:00,85.5,74.1,29.94,ESE,123,10.0,17.0,69,0.00,,,0.00,65.0,meteohub,2013-08-14 23:07:00,
2013-08-14 19:12:00,85.3,73.6,29.94,SE,140,11.0,12.0,68,0.00,,,0.00,60.0,meteohub,2013-08-14 23:12:00,
2013-08-14 19:17:00,85.3,74.3,29.94,ESE,105,9.0,14.0,70,0.00,,,0.00,47.0,meteohub,2013-08-14 23:17:00,
2013-08-14 19:22:00,85.3,75.2,29.94,ESE,111,7.0,14.0,72,0.00,,,0.00,39.0,meteohub,2013-08-14 23:22:00,
2013-08-14 19:27:00,85.1,75.0,29.95,SE,137,3.0,14.0,72,0.00,,,0.00,33.0,meteohub,2013-08-14 23:27:00,
2013-08-14 19:32:00,84.7,75.2,29.95,SSE,151,6.0,11.0,73,0.00,,,0.00,26.0,meteohub,2013-08-14 23:32:00,
2013-08-14 19:37:00,84.7,75.2,29.95,South,176,7.0,11.0,73,0.00,,,0.00,25.0,meteohub,2013-08-14 23:37:00,
2013-08-14 19:42:00,84.6,75.4,29.96,SE,134,4.0,11.0,74,0.00,,,0.00,18.0,meteohub,2013-08-14 23:42:00,
2013-08-14 19:47:00,84.6,75.4,29.96,SSE,160,5.0,10.0,74,0.00,,,0.00,11.0,meteohub,2013-08-14 23:47:00,
2013-08-14 19:52:00,84.4,75.2,29.96,SSE,161,3.0,12.0,74,0.00,,,0.00,5.0,meteohub,2013-08-14 23:52:00,
2013-08-14 19:57:00,84.0,75.2,29.96,SSE,163,6.0,12.0,75,0.00,,,0.00,0.0,meteohub,2013-08-14 23:57:00,
2013-08-14 20:02:00,84.0,75.2,29.96,SE,140,4.0,12.0,75,0.00,,,0.00,0.0,meteohub,2013-08-15 00:02:00,
2013-08-14 20:07:00,83.8,75.0,29.96,SE,138,3.0,12.0,75,0.00,,,0.00,0.0,meteohub,2013-08-15 00:07:00,
2013-08-14 20:12:00,83.8,75.4,29.96,SSE,155,5.0,12.0,76,0.00,,,0.00,0.0,meteohub,2013-08-15 00:12:00,
2013-08-14 20:17:00,83.7,75.2,29.96,SE,142,4.0,10.0,76,0.00,,,0.00,0.0,meteohub,2013-08-15 00:17:00,
2013-08-14 20:22:00,83.7,75.2,29.96,SE,142,6.0,10.0,76,0.00,,,0.00,0.0,meteohub,2013-08-15 00:22:00,
2013-08-14 20:27:00,83.7,75.7,29.96,SSE,157,4.0,10.0,77,0.00,,,0.00,0.0,meteohub,2013-08-15 00:27:00,
2013-08-14 20:32:00,83.5,75.6,29.96,East,101,7.0,9.0,77,0.00,,,0.00,0.0,meteohub,2013-08-15 00:32:00,
2013-08-14 20:37:00,83.5,75.6,29.96,SSE,156,3.0,9.0,77,0.00,,,0.00,0.0,meteohub,2013-08-15 00:37:00,
2013-08-14 20:42:00,83.5,75.6,29.97,ESE,118,8.0,9.0,77,0.00,,,0.00,0.0,meteohub,2013-08-15 00:42:00,
2013-08-14 20:47:00,83.5,75.6,29.97,SE,144,2.0,9.0,77,0.00,,,0.00,0.0,meteohub,2013-08-15 00:47:00,
2013-08-14 20:52:00,83.5,75.6,29.97,ESE,119,5.0,9.0,77,0.00,,,0.00,0.0,meteohub,2013-08-15 00:52:00,
2013-08-14 20:57:00,83.5,75.0,29.97,SE,135,3.0,9.0,76,0.00,,,0.00,0.0,meteohub,2013-08-15 00:57:00,
2013-08-14 21:02:00,83.5,75.0,29.97,SE,137,4.0,10.0,76,0.00,,,0.00,0.0,meteohub,2013-08-15 01:02:00,
2013-08-14 21:08:00,83.5,74.7,29.97,SE,141,3.0,10.0,75,0.00,,,0.00,0.0,meteohub,2013-08-15 01:08:00,
2013-08-14 21:13:00,83.5,74.7,29.98,SE,144,1.0,9.0,75,0.00,,,0.00,0.0,meteohub,2013-08-15 01:13:00,
2013-08-14 21:18:00,83.5,74.7,29.98,SE,134,3.0,9.0,75,0.00,,,0.00,0.0,meteohub,2013-08-15 01:18:00,
2013-08-14 21:23:00,83.5,74.7,29.98,SE,143,2.0,8.0,75,0.00,,,0.00,0.0,meteohub,2013-08-15 01:23:00,
2013-08-14 21:28:00,83.5,74.7,29.99,SSE,150,5.0,8.0,75,0.00,,,0.00,0.0,meteohub,2013-08-15 01:28:00,
2013-08-14 21:33:00,83.5,74.7,29.99,SSE,150,4.0,8.0,75,0.00,,,0.00,0.0,meteohub,2013-08-15 01:33:00,
2013-08-14 21:38:00,83.3,74.5,29.99,SSE,148,1.0,8.0,75,0.00,,,0.00,0.0,meteohub,2013-08-15 01:38:00,
2013-08-14 21:43:00,83.3,75.0,29.99,SSE,149,3.0,8.0,76,0.00,,,0.00,0.0,meteohub,2013-08-15 01:43:00,
2013-08-14 21:48:00,83.3,75.0,30.00,SSE,161,3.0,7.0,76,0.00,,,0.00,0.0,meteohub,2013-08-15 01:48:00,
2013-08-14 21:53:00,83.1,74.8,30.00,SSE,147,2.0,7.0,76,0.00,,,0.00,0.0,meteohub,2013-08-15 01:53:00,
2013-08-14 21:58:00,83.1,75.2,30.00,SSE,161,4.0,7.0,77,0.00,,,0.00,0.0,meteohub,2013-08-15 01:58:00,
2013-08-14 22:03:00,83.1,75.2,30.00,South,170,4.0,7.0,77,0.00,,,0.00,0.0,meteohub,2013-08-15 02:03:00,
2013-08-14 22:08:00,83.1,74.8,30.01,SSE,150,1.0,8.0,76,0.00,,,0.00,0.0,meteohub,2013-08-15 02:08:00,
2013-08-14 22:13:00,83.1,74.8,30.00,SSE,157,2.0,8.0,76,0.00,,,0.00,0.0,meteohub,2013-08-15 02:13:00,
2013-08-14 22:18:00,83.1,74.8,30.00,SSE,155,6.0,8.0,76,0.00,,,0.00,0.0,meteohub,2013-08-15 02:18:00,
2013-08-14 22:23:00,83.1,74.8,30.01,SSE,149,2.0,9.0,76,0.00,,,0.00,0.0,meteohub,2013-08-15 02:23:00,
2013-08-14 22:28:00,83.1,75.2,30.01,SSE,153,1.0,9.0,77,0.00,,,0.00,0.0,meteohub,2013-08-15 02:28:00,
2013-08-14 22:33:00,82.9,76.1,30.01,SSE,149,8.0,10.0,80,0.00,,,0.00,0.0,meteohub,2013-08-15 02:33:00,
2013-08-14 22:38:00,82.4,76.3,30.01,SSE,163,9.0,15.0,82,0.00,,,0.00,0.0,meteohub,2013-08-15 02:38:00,
2013-08-14 22:43:00,82.0,75.9,30.01,SSE,158,9.0,16.0,82,0.00,,,0.00,0.0,meteohub,2013-08-15 02:43:00,
2013-08-14 22:48:00,81.9,75.4,30.01,SSE,150,5.0,16.0,81,0.00,,,0.00,0.0,meteohub,2013-08-15 02:48:00,
2013-08-14 22:53:00,81.9,75.0,30.01,SSE,163,4.0,16.0,80,0.00,,,0.00,0.0,meteohub,2013-08-15 02:53:00,
2013-08-14 22:58:00,81.9,75.0,30.01,SSE,153,6.0,14.0,80,0.00,,,0.00,0.0,meteohub,2013-08-15 02:58:00,
2013-08-14 23:03:00,81.9,75.0,30.01,South,170,3.0,14.0,80,0.00,,,0.00,0.0,meteohub,2013-08-15 03:03:00,
2013-08-14 23:08:00,81.7,74.8,30.01,SE,141,2.0,10.0,80,0.00,,,0.00,0.0,meteohub,2013-08-15 03:08:00,
2013-08-14 23:13:00,81.7,74.8,30.01,SSE,154,1.0,10.0,80,0.00,,,0.00,0.0,meteohub,2013-08-15 03:13:00,
2013-08-14 23:18:00,81.7,74.8,30.01,SE,140,2.0,8.0,80,0.00,,,0.00,0.0,meteohub,2013-08-15 03:18:00,
2013-08-14 23:23:00,81.7,74.8,30.01,SE,139,2.0,7.0,80,0.00,,,0.00,0.0,meteohub,2013-08-15 03:23:00,
2013-08-14 23:28:00,81.7,74.8,30.02,ESE,123,4.0,7.0,80,0.00,,,0.00,0.0,meteohub,2013-08-15 03:28:00,
2013-08-14 23:33:00,81.9,75.0,30.02,SE,146,3.0,7.0,80,0.00,,,0.00,0.0,meteohub,2013-08-15 03:33:00,
2013-08-14 23:38:00,81.9,74.7,30.02,SE,142,3.0,6.0,79,0.00,,,0.00,0.0,meteohub,2013-08-15 03:38:00,
2013-08-14 23:43:00,81.9,74.7,30.01,SE,130,2.0,6.0,79,0.00,,,0.00,0.0,meteohub,2013-08-15 03:43:00,
2013-08-14 23:48:00,81.9,74.7,30.01,ESE,115,2.0,6.0,79,0.00,,,0.00,0.0,meteohub,2013-08-15 03:48:00,
2013-08-14 23:53:00,81.9,74.7,30.01,ESE,116,2.0,5.0,79,0.00,,,0.00,0.0,meteohub,2013-08-15 03:53:00,
2013-08-14 23:58:00,81.9,74.7,30.01,ESE,115,1.0,5.0,79,0.00,,,0.00,0.0,meteohub,2013-08-15 03:58:00,